Time;durP1;ratioP1;P1;durP2;ratioP2;P2;SDS_P1;SDS_P2;PMS_P1;PMS_P2;Temp;Humidity;BMP_temperature;BMP_pressure;BME280_temperature;BME280_humidity;BME280_pressure;Samples;Min_cycle;Max_cycle;Signal;HPM_P1;HPM_P2
2024/04/08 00:00:27;;;;;;;8.07;2.95;;;16.70;68.00;;;;;;5018435;28;20030;-64
2024/04/08 00:02:52;;;;;;;10.95;3.00;;;16.60;67.90;;;;;;5007859;28;20045;-63
2024/04/08 00:05:19;;;;;;;7.97;2.00;;;16.60;68.00;;;;;;5008789;28;20044;-64
2024/04/08 00:07:45;;;;;;;10.48;2.30;;;16.50;67.90;;;;;;5006973;28;20038;-63
2024/04/08 00:10:10;;;;;;;7.40;2.05;;;16.50;68.00;;;;;;5007828;28;20037;-64
2024/04/08 00:12:40;;;;;;;9.98;2.60;;;16.50;68.10;;;;;;5004794;28;20152;-64
2024/04/08 00:15:10;;;;;;;8.98;2.08;;;16.40;68.60;;;;;;5006046;28;20401;-64
2024/04/08 00:17:36;;;;;;;9.10;2.50;;;16.40;68.80;;;;;;5012849;28;20069;-64
2024/04/08 00:20:03;;;;;;;6.78;2.20;;;16.40;68.70;;;;;;5006271;28;20033;-64
2024/04/08 00:22:29;;;;;;;6.72;2.30;;;16.40;68.60;;;;;;5005097;28;20103;-63
2024/04/08 00:24:56;;;;;;;7.97;2.20;;;16.40;68.70;;;;;;5002208;28;20072;-64
2024/04/08 00:27:21;;;;;;;6.82;2.38;;;16.30;68.60;;;;;;5008522;28;20035;-64
2024/04/08 00:29:47;;;;;;;4.70;1.95;;;16.30;68.80;;;;;;5006786;28;20034;-62
2024/04/08 00:32:13;;;;;;;6.70;2.47;;;16.30;69.00;;;;;;5019886;28;20453;-64
2024/04/08 00:34:40;;;;;;;11.45;2.55;;;16.30;69.00;;;;;;5007631;28;20037;-64
2024/04/08 00:37:06;;;;;;;5.70;2.33;;;16.20;69.20;;;;;;5006610;28;20032;-64
2024/04/08 00:39:32;;;;;;;7.43;1.95;;;16.30;69.20;;;;;;5007546;28;20493;-62
2024/04/08 00:41:58;;;;;;;9.27;2.50;;;16.20;69.20;;;;;;5007926;28;20084;-64
2024/04/08 00:44:24;;;;;;;8.20;2.70;;;16.20;69.30;;;;;;5002206;28;20033;-64
2024/04/08 00:46:50;;;;;;;10.07;2.65;;;16.10;69.30;;;;;;5009817;28;20037;-63
2024/04/08 00:49:17;;;;;;;4.85;2.20;;;16.20;69.50;;;;;;5013130;28;20022;-64
2024/04/08 00:51:44;;;;;;;7.00;2.00;;;16.10;69.40;;;;;;5002655;28;20061;-64
2024/04/08 00:54:09;;;;;;;4.95;2.30;;;16.10;69.50;;;;;;5011380;28;20489;-62
2024/04/08 00:56:37;;;;;;;7.35;2.55;;;16.10;69.70;;;;;;5011081;28;20062;-64
2024/04/08 00:59:05;;;;;;;6.55;2.50;;;16.10;69.90;;;;;;5008871;28;20513;-64
2024/04/08 01:01:32;;;;;;;9.43;2.72;;;16.10;69.70;;;;;;5004371;28;20034;-63
2024/04/08 01:03:58;;;;;;;7.00;2.50;;;16.10;69.80;;;;;;5004064;28;20575;-64
2024/04/08 01:06:23;;;;;;;7.32;2.45;;;16.10;69.80;;;;;;5009015;28;20046;-64
2024/04/08 01:08:49;;;;;;;5.05;2.30;;;16.10;69.80;;;;;;5013368;28;20034;-64
2024/04/08 01:11:15;;;;;;;4.65;2.15;;;16.00;69.90;;;;;;5017590;28;20034;-64
2024/04/08 01:13:40;;;;;;;7.28;2.10;;;16.00;69.50;;;;;;5005578;28;20072;-64
2024/04/08 01:16:06;;;;;;;6.82;1.95;;;16.10;69.60;;;;;;5024812;28;20071;-64
2024/04/08 01:18:33;;;;;;;6.43;2.15;;;16.10;69.70;;;;;;5026025;28;20402;-64
2024/04/08 01:20:59;;;;;;;6.63;2.13;;;16.10;69.70;;;;;;5027349;28;20029;-64
2024/04/08 01:23:27;;;;;;;7.93;2.28;;;16.10;69.90;;;;;;5012736;28;20095;-64
2024/04/08 01:25:53;;;;;;;6.88;2.55;;;16.00;69.90;;;;;;5025087;28;20510;-64
2024/04/08 01:28:19;;;;;;;11.98;2.85;;;16.00;69.90;;;;;;5018481;28;20083;-63
2024/04/08 01:30:44;;;;;;;9.80;2.70;;;16.00;70.00;;;;;;5023942;28;20429;-64
2024/04/08 01:33:10;;;;;;;7.65;2.17;;;15.90;70.20;;;;;;5009513;28;20052;-64
2024/04/08 01:35:36;;;;;;;12.55;2.85;;;15.90;70.10;;;;;;5011587;28;20041;-64
2024/04/08 01:38:01;;;;;;;6.45;2.10;;;15.90;70.10;;;;;;5005944;28;20402;-64
2024/04/08 01:40:27;;;;;;;11.65;2.40;;;15.80;70.20;;;;;;5006257;28;20045;-62
2024/04/08 01:42:52;;;;;;;9.35;2.33;;;15.80;70.30;;;;;;5008170;28;20458;-63
2024/04/08 01:45:18;;;;;;;10.45;2.22;;;15.80;70.40;;;;;;5005601;28;20030;-64
2024/04/08 01:47:43;;;;;;;4.53;2.13;;;15.70;70.30;;;;;;5004823;28;20053;-62
2024/04/08 01:50:09;;;;;;;10.15;2.47;;;15.70;70.40;;;;;;5007447;28;20030;-64
2024/04/08 01:52:35;;;;;;;7.45;2.33;;;15.70;70.40;;;;;;5013506;28;20148;-64
2024/04/08 01:55:01;;;;;;;9.27;2.25;;;15.70;70.50;;;;;;5015854;28;20087;-64
2024/04/08 01:57:27;;;;;;;7.53;2.78;;;15.70;71.40;;;;;;5017941;28;20108;-63
2024/04/08 01:59:53;;;;;;;8.02;2.75;;;15.70;70.40;;;;;;5015879;28;20517;-64
2024/04/08 02:02:18;;;;;;;7.72;2.65;;;15.70;70.40;;;;;;5007159;28;20108;-64
2024/04/08 02:04:44;;;;;;;7.80;2.90;;;15.70;70.60;;;;;;5010235;28;20029;-63
2024/04/08 02:07:10;;;;;;;6.35;2.50;;;15.70;70.60;;;;;;5010739;28;20453;-64
2024/04/08 02:09:35;;;;;;;7.25;2.40;;;15.60;70.40;;;;;;5016543;28;20027;-64
2024/04/08 02:12:02;;;;;;;6.93;2.58;;;15.60;70.40;;;;;;5014450;28;20026;-64
2024/04/08 02:14:27;;;;;;;7.72;2.72;;;15.60;70.50;;;;;;5003429;28;20031;-64
2024/04/08 02:16:53;;;;;;;7.55;2.30;;;15.60;70.60;;;;;;5001952;28;20055;-64
2024/04/08 02:19:18;;;;;;;9.65;2.50;;;15.60;70.40;;;;;;5003460;28;20022;-63
2024/04/08 02:21:44;;;;;;;6.90;2.42;;;15.60;70.40;;;;;;5005424;28;20092;-63
2024/04/08 02:24:09;;;;;;;6.00;2.30;;;15.50;70.30;;;;;;5014365;28;20382;-64
2024/04/08 02:26:35;;;;;;;9.95;2.80;;;15.50;71.00;;;;;;5010354;28;20034;-64
2024/04/08 02:29:01;;;;;;;10.02;2.33;;;15.60;70.60;;;;;;5030524;28;20046;-63
2024/04/08 02:31:26;;;;;;;10.25;2.60;;;15.60;70.60;;;;;;5004514;28;20522;-62
2024/04/08 02:33:52;;;;;;;10.00;2.38;;;15.50;70.50;;;;;;5008183;28;20088;-65
2024/04/08 02:36:18;;;;;;;9.70;2.42;;;15.60;70.60;;;;;;5010079;28;20041;-64
2024/04/08 02:38:43;;;;;;;8.30;2.45;;;15.60;70.60;;;;;;5022600;28;20093;-63
2024/04/08 02:41:09;;;;;;;8.55;2.45;;;15.50;70.70;;;;;;5005936;28;20317;-65
2024/04/08 02:43:34;;;;;;;7.90;2.42;;;15.60;70.80;;;;;;5008486;28;20065;-64
2024/04/08 02:46:00;;;;;;;12.23;2.30;;;15.50;70.80;;;;;;5008911;28;20414;-64
2024/04/08 02:48:26;;;;;;;10.75;2.55;;;15.50;70.60;;;;;;5004507;28;20108;-64
2024/04/08 02:50:51;;;;;;;5.18;2.20;;;15.50;70.70;;;;;;5009590;28;20061;-64
2024/04/08 02:53:17;;;;;;;8.38;2.47;;;15.50;70.70;;;;;;5014720;28;20037;-64
2024/04/08 02:55:43;;;;;;;5.55;2.17;;;15.50;70.90;;;;;;4998404;28;20041;-65
2024/04/08 02:58:09;;;;;;;6.85;2.20;;;15.50;70.70;;;;;;5002261;28;20045;-66
2024/04/08 03:00:38;;;;;;;6.38;2.67;;;15.50;70.60;;;;;;5001145;28;20430;-65
2024/04/08 03:03:04;;;;;;;7.35;2.42;;;15.50;71.10;;;;;;5001862;28;20038;-64
2024/04/08 03:05:30;;;;;;;7.22;2.83;;;15.50;70.80;;;;;;5007425;28;20552;-64
2024/04/08 03:07:56;;;;;;;9.48;2.58;;;15.40;70.80;;;;;;5017974;28;20245;-62
2024/04/08 03:10:22;;;;;;;11.15;3.05;;;15.40;70.80;;;;;;5014482;28;20049;-64
2024/04/08 03:12:48;;;;;;;7.00;2.63;;;15.40;70.90;;;;;;5002642;28;20038;-64
2024/04/08 03:15:14;;;;;;;6.53;2.50;;;15.40;71.00;;;;;;5004373;28;20513;-65
2024/04/08 03:17:40;;;;;;;9.82;2.30;;;15.40;71.00;;;;;;5010324;28;20038;-64
2024/04/08 03:20:06;;;;;;;7.25;2.75;;;15.40;70.90;;;;;;5008209;28;20103;-64
2024/04/08 03:22:32;;;;;;;8.75;2.28;;;15.40;70.90;;;;;;5014774;28;20581;-63
2024/04/08 03:24:57;;;;;;;8.70;2.78;;;15.40;70.90;;;;;;5011526;28;20112;-64
2024/04/08 03:27:23;;;;;;;9.02;2.88;;;15.40;70.90;;;;;;5003955;28;20030;-65
2024/04/08 03:29:51;;;;;;;12.38;2.95;;;15.40;71.10;;;;;;5001275;28;20042;-64
2024/04/08 03:32:16;;;;;;;11.70;2.95;;;15.30;71.20;;;;;;4999479;28;20030;-64
2024/04/08 03:34:43;;;;;;;7.30;2.55;;;15.30;71.10;;;;;;4998873;28;20026;-64
2024/04/08 03:37:09;;;;;;;6.18;2.53;;;15.30;71.10;;;;;;4998616;28;20042;-65
2024/04/08 03:39:35;;;;;;;11.15;2.95;;;15.30;71.20;;;;;;4998627;28;20405;-65
2024/04/08 03:42:00;;;;;;;7.60;2.85;;;15.30;71.40;;;;;;4999408;28;20038;-63
2024/04/08 03:44:26;;;;;;;7.07;2.90;;;15.20;71.60;;;;;;5000765;28;20042;-64
2024/04/08 03:46:51;;;;;;;9.27;2.80;;;15.20;71.60;;;;;;5001164;28;20037;-64
2024/04/08 03:49:17;;;;;;;6.45;2.78;;;15.10;71.70;;;;;;5008977;28;20026;-65
2024/04/08 03:51:43;;;;;;;8.30;2.97;;;15.10;72.00;;;;;;5006092;28;20121;-64
2024/04/08 03:54:08;;;;;;;8.50;2.97;;;15.00;73.10;;;;;;4997309;28;20038;-65
2024/04/08 03:56:34;;;;;;;11.15;2.72;;;15.00;73.10;;;;;;4997566;28;20057;-64
2024/04/08 03:58:59;;;;;;;15.63;3.03;;;14.90;72.60;;;;;;4999544;28;20393;-64
2024/04/08 04:01:25;;;;;;;10.45;2.90;;;14.80;72.60;;;;;;4997970;28;20046;-64
2024/04/08 04:03:51;;;;;;;12.48;2.85;;;14.80;72.70;;;;;;5008097;28;20342;-63
2024/04/08 04:06:16;;;;;;;7.22;2.72;;;14.70;72.80;;;;;;5007624;28;20038;-64
2024/04/08 04:08:42;;;;;;;9.27;2.70;;;14.60;72.60;;;;;;5007877;28;20038;-63
2024/04/08 04:11:08;;;;;;;11.18;2.60;;;14.60;72.80;;;;;;5012827;28;20112;-64
2024/04/08 04:13:34;;;;;;;7.68;2.67;;;14.60;72.80;;;;;;5001039;28;20065;-65
2024/04/08 04:16:04;;;;;;;7.22;2.75;;;14.60;72.90;;;;;;5004444;28;20033;-63
2024/04/08 04:18:29;;;;;;;11.73;2.72;;;14.60;73.00;;;;;;5000169;28;20030;-64
2024/04/08 04:20:55;;;;;;;9.60;3.33;;;14.60;72.80;;;;;;5003774;28;20049;-65
2024/04/08 04:23:22;;;;;;;12.52;3.70;;;14.60;72.80;;;;;;5002863;28;20508;-64
2024/04/08 04:25:57;;;;;;;10.05;4.57;;;14.60;72.80;;;;;;5005081;28;20177;-64
2024/04/08 04:28:23;;;;;;;12.00;4.03;;;14.60;73.00;;;;;;4999439;28;20037;-64
2024/04/08 04:30:56;;;;;;;11.05;3.83;;;14.60;72.50;;;;;;4999968;28;20026;-64
2024/04/08 04:33:22;;;;;;;8.57;3.65;;;14.60;73.00;;;;;;5011674;28;20513;-64
2024/04/08 04:35:56;;;;;;;10.68;4.18;;;14.50;72.50;;;;;;5015794;28;20040;-64
2024/04/08 04:38:22;;;;;;;7.72;3.42;;;14.50;72.80;;;;;;5016340;28;20057;-65
2024/04/08 04:40:48;;;;;;;7.13;3.00;;;14.50;72.60;;;;;;5011554;28;20583;-64
2024/04/08 04:43:13;;;;;;;8.75;3.17;;;14.40;72.70;;;;;;5007577;28;20065;-64
2024/04/08 04:45:39;;;;;;;9.80;3.25;;;14.40;72.80;;;;;;5009219;28;20490;-65
2024/04/08 04:48:05;;;;;;;11.43;2.80;;;14.40;73.00;;;;;;5015275;28;20540;-64
2024/04/08 04:50:34;;;;;;;11.60;3.92;;;14.40;73.10;;;;;;5018271;28;20048;-61
2024/04/08 04:52:59;;;;;;;8.95;3.17;;;14.30;73.70;;;;;;5008113;28;20202;-64
2024/04/08 04:55:25;;;;;;;11.23;3.60;;;14.30;73.30;;;;;;5009199;28;20716;-62
2024/04/08 04:57:50;;;;;;;8.40;2.72;;;14.20;73.30;;;;;;5009324;28;20033;-62
2024/04/08 05:00:16;;;;;;;9.95;2.38;;;14.20;73.50;;;;;;5006847;28;20041;-65
2024/04/08 05:02:42;;;;;;;5.35;2.10;;;14.20;73.40;;;;;;5013760;28;20605;-64
2024/04/08 05:05:08;;;;;;;8.55;2.38;;;14.10;73.40;;;;;;5018144;28;20071;-64
2024/04/08 05:07:34;;;;;;;7.20;2.63;;;14.10;73.50;;;;;;5011687;28;20042;-64
2024/04/08 05:10:00;;;;;;;12.13;3.47;;;14.10;73.70;;;;;;5012629;28;20029;-64
2024/04/08 05:12:25;;;;;;;6.82;2.70;;;14.10;73.80;;;;;;5008807;28;20796;-63
2024/04/08 05:14:51;;;;;;;10.85;3.97;;;14.10;73.90;;;;;;5007818;28;20030;-63
2024/04/08 05:17:16;;;;;;;9.00;3.20;;;14.10;73.70;;;;;;5022805;28;20033;-64
2024/04/08 05:19:42;;;;;;;6.20;2.88;;;14.10;73.90;;;;;;5007170;28;20037;-65
2024/04/08 05:22:15;;;;;;;10.68;3.05;;;14.10;73.90;;;;;;5009992;28;20758;-64
2024/04/08 05:24:41;;;;;;;9.82;2.80;;;14.10;73.90;;;;;;5014115;28;20045;-63
2024/04/08 05:27:07;;;;;;;11.75;3.05;;;14.10;73.90;;;;;;5022002;28;20133;-64
2024/04/08 05:29:32;;;;;;;8.70;2.97;;;14.10;74.00;;;;;;5012275;28;20034;-65
2024/04/08 05:31:58;;;;;;;10.38;3.38;;;14.20;74.40;;;;;;5007259;28;20116;-64
2024/04/08 05:34:24;;;;;;;12.38;3.35;;;14.20;74.40;;;;;;5011947;28;20073;-64
2024/04/08 05:36:50;;;;;;;8.93;3.25;;;14.20;74.60;;;;;;5013245;28;20095;-64
2024/04/08 05:39:15;;;;;;;22.20;8.98;;;14.20;74.60;;;;;;5017494;28;20440;-65
2024/04/08 05:41:41;;;;;;;26.45;9.05;;;14.30;74.70;;;;;;5004679;28;20088;-64
2024/04/08 05:44:07;;;;;;;33.45;9.00;;;14.30;75.50;;;;;;5009866;28;20172;-64
2024/04/08 05:46:33;;;;;;;22.00;7.85;;;14.40;74.50;;;;;;5007528;28;20041;-64
2024/04/08 05:48:58;;;;;;;22.63;8.43;;;14.40;74.60;;;;;;5015431;28;20040;-63
2024/04/08 05:51:26;;;;;;;18.85;7.47;;;14.40;74.80;;;;;;5016630;28;20114;-64
2024/04/08 05:53:52;;;;;;;18.23;5.90;;;14.50;75.00;;;;;;5019601;28;20034;-64
2024/04/08 05:56:19;;;;;;;14.13;4.45;;;14.40;74.90;;;;;;5012930;28;20038;-64
2024/04/08 05:58:45;;;;;;;19.15;5.22;;;14.50;75.00;;;;;;5015525;28;20029;-65
2024/04/08 06:01:11;;;;;;;11.93;4.32;;;14.60;75.10;;;;;;5016338;28;20081;-64
2024/04/08 06:03:36;;;;;;;11.27;3.42;;;14.60;74.90;;;;;;5016419;28;20030;-63
2024/04/08 06:06:06;;;;;;;10.05;3.53;;;14.60;74.70;;;;;;5021800;28;20029;-63
2024/04/08 06:08:32;;;;;;;15.00;3.40;;;14.70;74.90;;;;;;5022746;28;20091;-64
2024/04/08 06:11:06;;;;;;;9.40;3.05;;;14.70;74.80;;;;;;5010732;28;20034;-63
2024/04/08 06:13:32;;;;;;;11.25;2.92;;;14.70;74.90;;;;;;5014393;28;20560;-64
2024/04/08 06:15:57;;;;;;;14.82;3.22;;;14.80;74.60;;;;;;5012145;28;20064;-64
2024/04/08 06:18:23;;;;;;;10.88;2.97;;;14.90;74.40;;;;;;5022569;28;20041;-65
2024/04/08 06:20:55;;;;;;;14.13;2.90;;;14.90;74.40;;;;;;5015377;28;20033;-64
2024/04/08 06:23:21;;;;;;;12.43;3.15;;;15.00;74.40;;;;;;5009460;28;20041;-65
2024/04/08 06:25:56;;;;;;;11.60;3.85;;;15.00;74.00;;;;;;5011276;28;20126;-64
2024/04/08 06:28:22;;;;;;;11.15;4.10;;;15.10;74.70;;;;;;5014462;28;20033;-65
2024/04/08 06:30:47;;;;;;;21.75;4.20;;;15.20;73.90;;;;;;5022123;28;20065;-64
2024/04/08 06:33:13;;;;;;;8.65;3.35;;;15.20;73.80;;;;;;5021231;28;20428;-64
2024/04/08 06:35:42;;;;;;;14.52;3.58;;;15.20;74.10;;;;;;5010794;28;20073;-64
2024/04/08 06:38:08;;;;;;;12.68;3.55;;;15.30;74.00;;;;;;5012968;28;20046;-64
2024/04/08 06:40:33;;;;;;;10.65;3.40;;;15.40;73.70;;;;;;5014898;28;20040;-64
2024/04/08 06:42:59;;;;;;;12.35;3.35;;;15.40;73.60;;;;;;5015756;28;20029;-64
2024/04/08 06:45:25;;;;;;;11.07;3.63;;;15.50;73.50;;;;;;5020990;28;20034;-65
2024/04/08 06:47:52;;;;;;;11.20;3.00;;;15.50;73.30;;;;;;5004168;28;20084;-64
2024/04/08 06:50:17;;;;;;;14.00;3.55;;;15.60;73.20;;;;;;5012812;28;20025;-64
2024/04/08 06:52:43;;;;;;;12.80;3.53;;;15.60;73.10;;;;;;5010166;28;20443;-64
2024/04/08 06:55:09;;;;;;;14.55;3.58;;;15.70;73.10;;;;;;5020870;28;20018;-65
2024/04/08 06:57:35;;;;;;;8.63;3.22;;;15.70;73.10;;;;;;5016514;28;20695;-64
2024/04/08 07:00:00;;;;;;;10.43;3.22;;;15.80;73.10;;;;;;5018669;28;20058;-64
2024/04/08 07:02:26;;;;;;;16.83;3.95;;;15.80;73.20;;;;;;5003454;28;20085;-65
2024/04/08 07:04:52;;;;;;;11.95;3.67;;;15.90;73.40;;;;;;5009022;28;20037;-64
2024/04/08 07:07:17;;;;;;;12.77;4.10;;;16.00;73.30;;;;;;5016987;28;20065;-64
2024/04/08 07:09:43;;;;;;;16.38;3.78;;;16.10;73.10;;;;;;5018733;28;20049;-64
2024/04/08 07:12:09;;;;;;;18.30;3.60;;;16.10;73.00;;;;;;5010649;28;20630;-64
2024/04/08 07:14:34;;;;;;;12.10;3.38;;;16.20;73.00;;;;;;5013577;28;20034;-65
2024/04/08 07:17:00;;;;;;;12.77;3.80;;;16.30;72.90;;;;;;5014908;28;20042;-64
2024/04/08 07:19:25;;;;;;;18.80;3.30;;;16.40;72.90;;;;;;5010173;28;20509;-64
2024/04/08 07:21:51;;;;;;;10.73;3.08;;;16.40;72.70;;;;;;5012996;28;20033;-64
2024/04/08 07:25:51;;;;;;;10.35;3.33;;;16.60;72.60;;;;;;5424821;25;20317;-64
2024/04/08 07:28:17;;;;;;;10.80;3.33;;;16.70;72.30;;;;;;5351488;26;20001;-64
2024/04/08 07:30:43;;;;;;;13.23;3.60;;;16.70;72.10;;;;;;5351293;26;20005;-63
2024/04/08 07:33:08;;;;;;;13.93;2.88;;;16.90;71.90;;;;;;5354192;26;20001;-64
2024/04/08 07:35:34;;;;;;;11.35;3.15;;;16.90;71.90;;;;;;5355665;26;20156;-62
2024/04/08 07:37:59;;;;;;;8.63;2.90;;;17.00;71.80;;;;;;5347199;26;19997;-64
2024/04/08 07:40:25;;;;;;;12.55;2.95;;;17.10;71.80;;;;;;5356216;26;19993;-64
2024/04/08 07:42:50;;;;;;;12.57;3.40;;;17.20;71.60;;;;;;5352597;26;20377;-64
2024/04/08 07:45:16;;;;;;;14.38;3.13;;;17.30;71.40;;;;;;5355807;26;20001;-64
2024/04/08 07:47:44;;;;;;;10.65;2.90;;;17.40;71.30;;;;;;5355370;26;20001;-63
2024/04/08 07:50:10;;;;;;;7.95;2.38;;;17.50;71.10;;;;;;5356812;26;20008;-63
2024/04/08 07:52:37;;;;;;;12.40;3.10;;;17.60;71.10;;;;;;5353036;26;19993;-63
2024/04/08 07:55:04;;;;;;;16.17;3.10;;;17.70;70.80;;;;;;5355431;26;19997;-63
2024/04/08 07:57:30;;;;;;;11.32;3.03;;;17.80;70.70;;;;;;5355389;26;20522;-64
2024/04/08 07:59:55;;;;;;;11.55;2.58;;;17.90;70.50;;;;;;5352685;26;19996;-64
2024/04/08 08:02:23;;;;;;;9.82;2.78;;;18.10;70.40;;;;;;5350191;26;20000;-62
2024/04/08 08:04:49;;;;;;;10.95;2.75;;;18.10;70.10;;;;;;5353950;26;19997;-64
2024/04/08 08:07:14;;;;;;;11.13;3.63;;;18.30;69.90;;;;;;5352494;26;20008;-64
2024/04/08 08:09:40;;;;;;;11.88;2.40;;;18.40;70.00;;;;;;5353251;26;20140;-64
2024/04/08 08:12:06;;;;;;;12.90;3.33;;;18.50;70.00;;;;;;5350912;26;20000;-64
2024/04/08 08:14:32;;;;;;;13.68;2.90;;;18.60;69.70;;;;;;5353370;26;19993;-63
2024/04/08 08:16:57;;;;;;;11.18;2.75;;;18.80;69.50;;;;;;5354435;26;20013;-63
2024/04/08 08:19:23;;;;;;;14.10;2.78;;;18.80;69.30;;;;;;5353856;26;19997;-62
2024/04/08 08:21:48;;;;;;;17.42;2.55;;;19.00;69.00;;;;;;5353213;26;20016;-63
2024/04/08 08:24:14;;;;;;;6.82;2.10;;;19.10;68.00;;;;;;5352834;26;20003;-64
2024/04/08 08:26:40;;;;;;;7.60;2.05;;;19.20;67.60;;;;;;5350632;26;19997;-64
2024/04/08 08:29:05;;;;;;;12.68;2.45;;;19.30;67.50;;;;;;5351642;26;20007;-64
2024/04/08 08:31:31;;;;;;;13.68;3.08;;;19.50;67.40;;;;;;5352047;26;20066;-64
2024/04/08 08:33:56;;;;;;;12.00;2.70;;;19.60;66.70;;;;;;5353849;26;20008;-62
2024/04/08 08:36:22;;;;;;;11.48;2.90;;;19.80;66.40;;;;;;5341622;26;19997;-64
2024/04/08 08:38:47;;;;;;;14.77;2.55;;;19.90;65.70;;;;;;5340412;26;20001;-64
2024/04/08 08:41:16;;;;;;;11.82;2.70;;;20.00;65.00;;;;;;5336417;26;19997;-64
2024/04/08 08:43:41;;;;;;;13.77;2.70;;;20.10;63.40;;;;;;5339395;26;20020;-63
2024/04/08 08:46:08;;;;;;;16.20;3.08;;;20.20;63.00;;;;;;5339912;26;20464;-61
2024/04/08 08:48:36;;;;;;;14.02;2.80;;;20.30;62.80;;;;;;5339380;26;19998;-64
2024/04/08 08:51:04;;;;;;;10.25;2.35;;;20.40;62.90;;;;;;5337390;26;20348;-64
2024/04/08 08:53:31;;;;;;;13.65;2.40;;;20.50;62.90;;;;;;5337341;26;20000;-64
2024/04/08 08:55:58;;;;;;;8.68;2.55;;;20.70;62.20;;;;;;5337366;26;20072;-64
2024/04/08 08:58:24;;;;;;;10.05;2.25;;;20.80;62.30;;;;;;5339811;26;20608;-64
2024/04/08 09:00:50;;;;;;;12.18;2.67;;;20.90;62.30;;;;;;5338282;26;20016;-64
2024/04/08 09:03:16;;;;;;;15.52;2.55;;;21.00;62.20;;;;;;5337534;26;20001;-63
2024/04/08 09:05:42;;;;;;;8.38;2.35;;;21.10;61.50;;;;;;5337103;26;20012;-63
2024/04/08 09:08:08;;;;;;;9.07;2.03;;;21.20;61.00;;;;;;5336623;26;20003;-64
2024/04/08 09:10:44;;;;;;;11.35;2.20;;;21.40;60.50;;;;;;5334499;26;20472;-63
2024/04/08 09:13:25;;;;;;;14.27;2.22;;;21.50;59.10;;;;;;5333742;26;20563;-63
2024/04/08 09:15:52;;;;;;;17.52;1.92;;;21.60;59.00;;;;;;5339040;26;20004;-61
2024/04/08 09:18:18;;;;;;;10.05;2.67;;;21.70;60.10;;;;;;5337818;26;20005;-64
2024/04/08 09:20:44;;;;;;;11.05;1.88;;;21.90;59.20;;;;;;5339487;26;20017;-64
2024/04/08 09:23:11;;;;;;;16.25;2.20;;;22.00;59.10;;;;;;5337669;26;20578;-65
2024/04/08 09:25:37;;;;;;;14.98;2.60;;;22.10;59.30;;;;;;5336995;26;20089;-63
2024/04/08 09:28:02;;;;;;;14.07;2.25;;;22.20;59.70;;;;;;5336895;26;20001;-64
2024/04/08 09:30:28;;;;;;;17.02;2.53;;;22.30;59.80;;;;;;5336049;26;20020;-64
2024/04/08 09:32:54;;;;;;;9.80;2.30;;;22.40;59.70;;;;;;5337238;26;20009;-64
2024/04/08 09:35:20;;;;;;;14.80;2.80;;;22.50;60.30;;;;;;5337303;26;20011;-62
2024/04/08 09:37:47;;;;;;;10.65;2.45;;;22.60;59.20;;;;;;5336274;26;20086;-63
2024/04/08 09:40:14;;;;;;;14.75;2.58;;;22.70;59.60;;;;;;5338186;26;19997;-64
2024/04/08 09:42:41;;;;;;;11.43;2.50;;;22.80;58.90;;;;;;5339012;26;20008;-63
2024/04/08 09:45:09;;;;;;;12.55;2.20;;;22.80;58.90;;;;;;5335539;26;19997;-62
2024/04/08 09:47:37;;;;;;;16.30;2.08;;;23.00;59.00;;;;;;5336253;26;20012;-63
2024/04/08 09:50:04;;;;;;;12.90;2.35;;;23.00;59.00;;;;;;5338829;26;20059;-64
2024/04/08 09:52:30;;;;;;;15.98;2.58;;;23.10;58.40;;;;;;5339635;26;19997;-63
2024/04/08 09:54:58;;;;;;;11.48;1.95;;;23.20;58.00;;;;;;5339134;26;20016;-63
2024/04/08 09:57:29;;;;;;;14.43;2.10;;;23.30;57.50;;;;;;5335106;26;19993;-62
2024/04/08 09:59:56;;;;;;;14.38;2.45;;;23.40;57.60;;;;;;5338553;26;20020;-64
2024/04/08 10:02:31;;;;;;;12.05;2.00;;;23.60;57.40;;;;;;5335642;26;20008;-64
2024/04/08 10:05:02;;;;;;;13.27;2.40;;;23.70;55.80;;;;;;5337747;26;19997;-63
2024/04/08 10:07:29;;;;;;;10.07;2.05;;;23.80;54.80;;;;;;5338842;26;20468;-64
2024/04/08 10:09:55;;;;;;;14.70;2.22;;;23.90;54.80;;;;;;5338324;26;20012;-64
2024/04/08 10:12:32;;;;;;;17.33;2.42;;;24.00;54.70;;;;;;5336336;26;20009;-63
2024/04/08 10:15:14;;;;;;;11.02;2.67;;;24.10;52.80;;;;;;5335745;26;20008;-64
2024/04/08 10:17:48;;;;;;;10.27;1.95;;;24.20;51.70;;;;;;5332860;26;19993;-64
2024/04/08 10:20:18;;;;;;;10.55;1.98;;;24.30;51.90;;;;;;5337459;26;20546;-63
2024/04/08 10:22:45;;;;;;;13.48;1.83;;;24.40;51.60;;;;;;5336320;26;20341;-64
2024/04/08 10:25:34;;;;;;;10.68;2.42;;;24.60;51.40;;;;;;5337074;26;20368;-64
2024/04/08 10:28:03;;;;;;;20.73;2.00;;;24.70;50.60;;;;;;5332380;26;20555;-63
2024/04/08 10:30:28;;;;;;;20.10;2.25;;;24.80;50.70;;;;;;5333021;26;19993;-64
2024/04/08 10:32:54;;;;;;;12.35;1.95;;;24.80;50.30;;;;;;5339231;26;20119;-64
2024/04/08 10:35:20;;;;;;;11.13;1.92;;;24.90;49.90;;;;;;5337944;26;20403;-64
2024/04/08 10:37:45;;;;;;;14.02;2.05;;;25.00;49.70;;;;;;5338321;26;20008;-63
2024/04/08 10:40:11;;;;;;;10.15;2.00;;;25.10;49.50;;;;;;5335688;26;19997;-63
2024/04/08 10:42:37;;;;;;;14.52;1.92;;;25.20;49.20;;;;;;5336369;26;20013;-64
2024/04/08 10:45:03;;;;;;;9.75;2.15;;;25.30;49.00;;;;;;5340027;26;20001;-63
2024/04/08 10:47:28;;;;;;;10.48;1.63;;;25.30;48.40;;;;;;5332058;26;19997;-64
2024/04/08 10:49:54;;;;;;;11.45;2.03;;;25.40;48.10;;;;;;5336323;26;20005;-64
2024/04/08 10:52:19;;;;;;;14.05;2.50;;;25.40;48.20;;;;;;5337191;26;20453;-64
2024/04/08 10:54:45;;;;;;;11.30;2.10;;;25.50;47.60;;;;;;5334776;26;20001;-65
2024/04/08 10:57:11;;;;;;;11.20;2.13;;;25.50;47.60;;;;;;5336609;26;20001;-64
2024/04/08 10:59:36;;;;;;;17.42;2.00;;;25.50;47.10;;;;;;5335217;26;19997;-65
2024/04/08 11:02:06;;;;;;;12.77;2.20;;;25.60;46.80;;;;;;5339778;26;19997;-64
2024/04/08 11:04:32;;;;;;;8.38;1.55;;;25.60;45.80;;;;;;5336638;26;20012;-64
2024/04/08 11:06:57;;;;;;;11.27;2.00;;;25.60;46.40;;;;;;5342852;26;20005;-65
2024/04/08 11:09:23;;;;;;;11.77;2.22;;;25.70;46.70;;;;;;5339744;26;20469;-64
2024/04/08 11:11:49;;;;;;;9.40;1.77;;;25.70;46.60;;;;;;5338405;26;20015;-63
2024/04/08 11:14:15;;;;;;;11.60;1.83;;;25.80;46.00;;;;;;5334193;26;20447;-63
2024/04/08 11:16:40;;;;;;;14.15;1.95;;;25.90;46.40;;;;;;5336974;26;20011;-64
2024/04/08 11:19:06;;;;;;;14.38;2.08;;;26.00;45.40;;;;;;5338630;26;19997;-65
2024/04/08 11:21:33;;;;;;;10.70;1.90;;;26.00;44.50;;;;;;5338035;26;20075;-64
2024/04/08 11:23:58;;;;;;;12.13;2.33;;;26.10;44.50;;;;;;5338386;26;20092;-64
2024/04/08 11:26:30;;;;;;;11.48;1.95;;;26.20;44.60;;;;;;5333456;26;20004;-65
2024/04/08 11:28:59;;;;;;;16.05;2.83;;;26.20;43.60;;;;;;5334977;26;19996;-65
2024/04/08 11:31:24;;;;;;;17.92;2.40;;;26.30;43.00;;;;;;5337817;26;20526;-64
2024/04/08 11:33:50;;;;;;;12.95;2.00;;;26.30;42.90;;;;;;5335895;26;19997;-64
2024/04/08 11:36:18;;;;;;;15.05;2.28;;;26.40;42.60;;;;;;5334901;26;20066;-65
2024/04/08 11:38:43;;;;;;;12.70;2.50;;;26.40;42.00;;;;;;5336782;26;20016;-64
2024/04/08 11:41:09;;;;;;;11.75;2.25;;;26.50;42.30;;;;;;5337239;26;19997;-65
2024/04/08 11:43:35;;;;;;;19.27;2.92;;;26.50;41.50;;;;;;5335309;26;19993;-64
2024/04/08 11:46:00;;;;;;;12.90;2.38;;;26.60;40.60;;;;;;5336971;26;19997;-65
2024/04/08 11:48:26;;;;;;;15.52;2.40;;;26.60;40.50;;;;;;5331701;26;20461;-65
2024/04/08 11:50:52;;;;;;;17.38;2.65;;;26.60;40.70;;;;;;5333867;26;20012;-64
2024/04/08 11:53:18;;;;;;;12.73;2.35;;;26.60;41.00;;;;;;5337126;26;20302;-65
2024/04/08 11:55:44;;;;;;;19.60;2.85;;;26.70;41.00;;;;;;5334870;26;20346;-65
2024/04/08 11:58:10;;;;;;;14.32;2.25;;;26.70;40.60;;;;;;5337034;26;20005;-64
2024/04/08 12:00:35;;;;;;;18.52;2.50;;;26.80;40.60;;;;;;5331073;26;20078;-64
2024/04/08 12:03:01;;;;;;;13.57;2.40;;;26.80;41.00;;;;;;5336068;26;20463;-65
2024/04/08 12:05:27;;;;;;;11.63;2.65;;;26.90;40.70;;;;;;5331578;26;19993;-65
2024/04/08 12:07:53;;;;;;;13.90;2.70;;;26.90;40.40;;;;;;5334067;26;20416;-64
2024/04/08 12:10:18;;;;;;;23.58;3.05;;;27.00;40.60;;;;;;5333205;26;20009;-66
2024/04/08 12:12:44;;;;;;;15.73;2.78;;;27.10;40.60;;;;;;5340764;26;20422;-65
2024/04/08 12:15:10;;;;;;;18.27;2.60;;;27.10;40.00;;;;;;5339015;26;20000;-65
2024/04/08 12:17:35;;;;;;;12.65;2.70;;;27.10;39.30;;;;;;5339247;26;20011;-64
2024/04/08 12:20:01;;;;;;;15.02;2.40;;;27.10;38.80;;;;;;5337422;26;20036;-65
2024/04/08 12:22:27;;;;;;;15.00;2.75;;;27.20;39.70;;;;;;5336563;26;20001;-66
2024/04/08 12:24:52;;;;;;;14.13;2.58;;;27.20;39.70;;;;;;5336621;26;19997;-64
2024/04/08 12:27:19;;;;;;;22.75;3.30;;;27.20;39.50;;;;;;5341759;26;20668;-65
2024/04/08 12:29:45;;;;;;;23.70;3.22;;;27.30;39.50;;;;;;5340906;26;20001;-65
2024/04/08 12:32:11;;;;;;;24.20;3.38;;;27.30;39.30;;;;;;5339444;26;20157;-65
2024/04/08 12:34:36;;;;;;;17.05;3.03;;;27.30;39.50;;;;;;5339436;26;20008;-64
2024/04/08 12:37:02;;;;;;;23.27;3.88;;;27.40;39.80;;;;;;5334357;26;19997;-64